createdAt,value
2019-01-08T00:00:39.657Z,0
2019-01-08T00:01:41.785Z,0
2019-01-08T00:02:44.236Z,0
2019-01-08T00:03:46.383Z,0
2019-01-08T00:04:48.531Z,0
2019-01-08T00:05:50.680Z,0
2019-01-08T00:06:52.913Z,0
2019-01-08T00:07:55.022Z,0
2019-01-08T00:08:57.433Z,0
2019-01-08T00:09:59.565Z,0
2019-01-08T00:11:01.922Z,0
2019-01-08T00:12:04.041Z,0
2019-01-08T00:13:06.169Z,0
2019-01-08T00:14:08.309Z,0
2019-01-08T00:15:10.443Z,0
2019-01-08T00:16:12.567Z,0
2019-01-08T00:17:15.005Z,0
2019-01-08T00:18:17.234Z,0
2019-01-08T00:19:19.349Z,0
2019-01-08T00:20:21.580Z,0
2019-01-08T00:21:23.861Z,0
2019-01-08T00:22:26.000Z,0
2019-01-08T00:23:28.142Z,0
2019-01-08T00:24:30.559Z,0
2019-01-08T00:25:32.693Z,0
2019-01-08T00:26:34.822Z,0
2019-01-08T00:27:36.953Z,0
2019-01-08T00:28:43.166Z,0
2019-01-08T00:29:45.554Z,0
2019-01-08T00:30:47.681Z,0
2019-01-08T00:31:50.106Z,0
2019-01-08T00:32:52.256Z,0
2019-01-08T00:33:54.456Z,0
2019-01-08T00:34:56.651Z,0
2019-01-08T00:35:58.797Z,0
2019-01-08T00:37:01.481Z,0
2019-01-08T00:38:03.619Z,0
2019-01-08T00:39:05.876Z,0
2019-01-08T00:40:08.019Z,0
2019-01-08T00:41:10.141Z,0
2019-01-08T00:42:12.262Z,0
2019-01-08T00:43:14.415Z,0
2019-01-08T00:44:16.546Z,0
2019-01-08T00:45:18.676Z,0
2019-01-08T00:46:20.839Z,0
2019-01-08T00:47:22.966Z,0
2019-01-08T00:48:25.393Z,0
2019-01-08T00:49:27.531Z,0
2019-01-08T00:50:29.680Z,0
2019-01-08T00:51:32.105Z,0
2019-01-08T00:52:34.339Z,0
2019-01-08T00:53:36.486Z,0
2019-01-08T00:54:38.609Z,0
2019-01-08T00:55:40.789Z,0
2019-01-08T00:56:42.928Z,0
2019-01-08T00:57:45.066Z,0
2019-01-08T00:58:51.405Z,0
2019-01-08T00:59:54.176Z,0
2019-01-08T01:00:56.301Z,0
2019-01-08T01:01:58.438Z,0
2019-01-08T01:03:00.592Z,0
2019-01-08T01:04:02.744Z,0
2019-01-08T01:05:04.864Z,0
2019-01-08T01:06:06.990Z,0
2019-01-08T01:07:09.124Z,0
2019-01-08T01:08:11.246Z,0
2019-01-08T01:09:13.670Z,0
2019-01-08T01:10:15.804Z,0
2019-01-08T01:11:17.940Z,0
2019-01-08T01:12:20.070Z,0
2019-01-08T01:13:22.201Z,0
2019-01-08T01:14:24.360Z,0
2019-01-08T01:15:26.501Z,0
2019-01-08T01:16:28.705Z,0
2019-01-08T01:17:30.826Z,0
2019-01-08T01:18:33.248Z,0
2019-01-08T01:19:35.783Z,0
2019-01-08T01:20:37.927Z,0
2019-01-08T01:21:40.051Z,0
2019-01-08T01:22:42.164Z,0
2019-01-08T01:23:44.382Z,0
2019-01-08T01:24:46.526Z,0
2019-01-08T01:25:48.677Z,0
2019-01-08T01:26:51.080Z,0
2019-01-08T01:27:53.977Z,0
2019-01-08T01:29:00.065Z,0
2019-01-08T01:30:02.569Z,0
2019-01-08T01:31:04.689Z,0
2019-01-08T01:32:06.811Z,0
2019-01-08T01:33:09.326Z,0
2019-01-08T01:34:11.449Z,0
2019-01-08T01:35:13.590Z,0
2019-01-08T01:36:15.708Z,0
2019-01-08T01:37:17.927Z,0
2019-01-08T01:38:20.071Z,0
2019-01-08T01:39:22.307Z,0
2019-01-08T01:40:24.440Z,0
2019-01-08T01:41:26.574Z,0
2019-01-08T01:42:29.106Z,0
2019-01-08T01:43:31.504Z,0
2019-01-08T01:44:33.650Z,0
2019-01-08T01:45:36.063Z,0
2019-01-08T01:46:38.517Z,0
2019-01-08T01:47:40.656Z,0
2019-01-08T01:48:42.792Z,0
2019-01-08T01:49:44.939Z,0
2019-01-08T01:50:47.371Z,0
2019-01-08T01:51:49.530Z,0
2019-01-08T01:52:51.731Z,0
2019-01-08T01:53:53.869Z,0
2019-01-08T01:54:56.301Z,0
2019-01-08T01:55:58.443Z,0
2019-01-08T01:57:00.566Z,0
2019-01-08T01:58:03.274Z,0
2019-01-08T01:59:08.431Z,0
2019-01-08T02:00:10.860Z,0
2019-01-08T02:01:13.025Z,0
2019-01-08T02:02:15.162Z,0
2019-01-08T02:03:17.293Z,0
2019-01-08T02:04:19.817Z,0
2019-01-08T02:05:22.349Z,0
2019-01-08T02:06:24.753Z,0
2019-01-08T02:07:26.882Z,0
2019-01-08T02:08:29.018Z,0
2019-01-08T02:09:31.530Z,0
2019-01-08T02:10:33.670Z,0
2019-01-08T02:11:35.786Z,0
2019-01-08T02:12:37.985Z,0
2019-01-08T02:13:40.125Z,0
2019-01-08T02:14:42.276Z,0
2019-01-08T02:15:44.437Z,0
2019-01-08T02:16:46.584Z,0
2019-01-08T02:17:48.810Z,0
2019-01-08T02:18:50.956Z,0
2019-01-08T02:19:53.095Z,0
2019-01-08T02:20:55.308Z,0
2019-01-08T02:21:57.431Z,0
2019-01-08T02:22:59.568Z,0
2019-01-08T02:24:01.720Z,0
2019-01-08T02:25:03.863Z,0
2019-01-08T02:26:06.013Z,0
2019-01-08T02:27:08.154Z,0
2019-01-08T02:28:10.309Z,0
2019-01-08T02:29:16.564Z,0
2019-01-08T02:30:18.830Z,0
2019-01-08T02:31:21.293Z,0
2019-01-08T02:32:23.832Z,0
2019-01-08T02:33:25.973Z,0
2019-01-08T02:34:28.417Z,0
2019-01-08T02:35:30.534Z,0
2019-01-08T02:36:33.083Z,0
2019-01-08T02:37:35.285Z,0
2019-01-08T02:38:37.708Z,0
2019-01-08T02:39:39.842Z,0
2019-01-08T02:40:41.999Z,0
2019-01-08T02:41:44.311Z,0
2019-01-08T02:42:47.031Z,0
2019-01-08T02:43:49.201Z,0
2019-01-08T02:44:51.332Z,0
2019-01-08T02:45:53.768Z,0
2019-01-08T02:46:56.327Z,0
2019-01-08T02:47:58.874Z,0
2019-01-08T02:49:01.009Z,0
2019-01-08T02:50:03.328Z,0
2019-01-08T02:51:05.493Z,0
2019-01-08T02:52:07.644Z,0
2019-01-08T02:53:10.385Z,0
2019-01-08T02:54:12.564Z,0
2019-01-08T02:55:14.878Z,0
2019-01-08T02:56:17.002Z,0
2019-01-08T02:57:19.128Z,0
2019-01-08T02:58:21.938Z,0
2019-01-08T02:59:25.120Z,0
2019-01-08T03:00:27.535Z,0
2019-01-08T03:01:29.684Z,0
2019-01-08T03:02:32.135Z,0
2019-01-08T03:03:34.355Z,0
2019-01-08T03:04:36.792Z,0
2019-01-08T03:05:39.222Z,0
2019-01-08T03:06:41.355Z,0
2019-01-08T03:07:43.487Z,0
2019-01-08T03:08:45.616Z,0
2019-01-08T03:09:47.768Z,0
2019-01-08T03:10:49.912Z,0
2019-01-08T03:11:52.048Z,0
2019-01-08T03:12:54.490Z,0
2019-01-08T03:13:56.635Z,0
2019-01-08T03:14:58.776Z,0
2019-01-08T03:16:01.118Z,0
2019-01-08T03:17:03.261Z,0
2019-01-08T03:18:05.795Z,0
2019-01-08T03:19:07.935Z,0
2019-01-08T03:20:10.047Z,0
2019-01-08T03:21:12.184Z,0
2019-01-08T03:22:14.315Z,0
2019-01-08T03:23:16.465Z,0
2019-01-08T03:24:18.615Z,0
2019-01-08T03:25:20.739Z,0
2019-01-08T03:26:22.878Z,0
2019-01-08T03:27:25.024Z,0
2019-01-08T03:28:27.185Z,0
2019-01-08T03:29:33.582Z,0
2019-01-08T03:30:35.959Z,0
2019-01-08T03:31:38.116Z,0
2019-01-08T03:32:40.665Z,0
2019-01-08T03:33:42.813Z,0
2019-01-08T03:34:44.934Z,0
2019-01-08T03:35:47.072Z,0
2019-01-08T03:36:49.893Z,0
2019-01-08T03:37:52.401Z,0
2019-01-08T03:38:54.534Z,0
2019-01-08T03:39:57.072Z,0
2019-01-08T03:40:59.211Z,0
2019-01-08T03:42:01.728Z,0
2019-01-08T03:43:04.178Z,0
2019-01-08T03:44:06.303Z,0
2019-01-08T03:45:08.461Z,0
2019-01-08T03:46:10.581Z,0
2019-01-08T03:47:12.991Z,0
2019-01-08T03:48:15.112Z,0
2019-01-08T03:49:17.252Z,0
2019-01-08T03:50:19.458Z,0
2019-01-08T03:51:21.594Z,0
2019-01-08T03:52:23.714Z,0
2019-01-08T03:53:25.851Z,0
2019-01-08T03:54:28.057Z,0
2019-01-08T03:55:30.177Z,0
2019-01-08T03:56:32.308Z,0
2019-01-08T03:57:34.762Z,0
2019-01-08T03:58:36.905Z,0
2019-01-08T03:59:41.947Z,0
2019-01-08T04:00:44.360Z,0
2019-01-08T04:01:46.602Z,0
2019-01-08T04:02:49.047Z,0
2019-01-08T04:03:51.238Z,0
2019-01-08T04:04:53.369Z,0
2019-01-08T04:05:55.483Z,0
2019-01-08T04:06:57.618Z,0
2019-01-08T04:07:59.779Z,0
2019-01-08T04:09:02.009Z,0
2019-01-08T04:10:04.152Z,0
2019-01-08T04:11:06.287Z,0
2019-01-08T04:12:08.417Z,0
2019-01-08T04:13:10.555Z,0
2019-01-08T04:14:12.688Z,0
2019-01-08T04:15:14.817Z,0
2019-01-08T04:16:17.243Z,0
2019-01-08T04:17:19.380Z,0
2019-01-08T04:18:21.504Z,0
2019-01-08T04:19:23.655Z,0
2019-01-08T04:20:26.177Z,0
2019-01-08T04:21:28.303Z,0
2019-01-08T04:22:30.714Z,0
2019-01-08T04:23:32.849Z,0
2019-01-08T04:24:35.009Z,0
2019-01-08T04:25:37.470Z,0
2019-01-08T04:26:39.908Z,0
2019-01-08T04:27:42.030Z,0
2019-01-08T04:28:44.463Z,0
2019-01-08T04:29:50.537Z,0
2019-01-08T04:30:52.844Z,0
2019-01-08T04:31:54.983Z,0
2019-01-08T04:32:57.098Z,0
2019-01-08T04:33:59.224Z,0
2019-01-08T04:35:01.649Z,0
2019-01-08T04:36:03.848Z,0
2019-01-08T04:37:05.989Z,0
2019-01-08T04:38:08.115Z,0
2019-01-08T04:39:10.243Z,0
2019-01-08T04:40:12.364Z,0
2019-01-08T04:41:14.788Z,0
2019-01-08T04:42:16.924Z,0
2019-01-08T04:43:19.061Z,0
2019-01-08T04:44:21.198Z,0
2019-01-08T04:45:23.347Z,0
2019-01-08T04:46:25.796Z,0
2019-01-08T04:47:27.923Z,0
2019-01-08T04:48:30.351Z,0
2019-01-08T04:49:32.517Z,0
2019-01-08T04:50:34.933Z,0
2019-01-08T04:51:37.082Z,0
2019-01-08T04:52:39.226Z,0
2019-01-08T04:53:41.680Z,0
2019-01-08T04:54:43.813Z,0
2019-01-08T04:55:45.966Z,0
2019-01-08T04:56:48.109Z,0
2019-01-08T04:57:50.263Z,0
2019-01-08T04:58:52.861Z,0
2019-01-08T04:59:58.996Z,0
2019-01-08T05:01:01.305Z,0
2019-01-08T05:02:03.483Z,0
2019-01-08T05:03:05.621Z,0
2019-01-08T05:04:07.762Z,0
2019-01-08T05:05:09.917Z,0
2019-01-08T05:06:12.056Z,0
2019-01-08T05:07:14.784Z,0
2019-01-08T05:08:16.935Z,0
2019-01-08T05:09:19.082Z,0
2019-01-08T05:10:21.232Z,0
2019-01-08T05:11:23.371Z,0
2019-01-08T05:12:25.500Z,0
2019-01-08T05:13:27.634Z,0
2019-01-08T05:14:29.745Z,0
2019-01-08T05:15:32.287Z,0
2019-01-08T05:16:34.414Z,0
2019-01-08T05:17:36.832Z,0
2019-01-08T05:18:38.969Z,0
2019-01-08T05:19:41.119Z,0
2019-01-08T05:20:43.242Z,0
2019-01-08T05:21:45.365Z,0
2019-01-08T05:22:47.528Z,0
2019-01-08T05:23:49.669Z,0
2019-01-08T05:24:51.803Z,0
2019-01-08T05:25:54.613Z,0
2019-01-08T05:26:56.743Z,0
2019-01-08T05:27:58.896Z,0
2019-01-08T05:29:01.340Z,0
2019-01-08T05:30:08.032Z,0
2019-01-08T05:31:10.532Z,0
2019-01-08T05:32:12.962Z,0
2019-01-08T05:33:15.090Z,0
2019-01-08T05:34:17.212Z,0
2019-01-08T05:35:19.350Z,0
2019-01-08T05:36:21.487Z,0
2019-01-08T05:37:23.928Z,0
2019-01-08T05:38:26.068Z,0
2019-01-08T05:39:28.204Z,0
2019-01-08T05:40:30.427Z,0
2019-01-08T05:41:32.596Z,0
2019-01-08T05:42:34.728Z,0
2019-01-08T05:43:36.872Z,0
2019-01-08T05:44:39.011Z,0
2019-01-08T05:45:41.141Z,0
2019-01-08T05:46:43.554Z,0
2019-01-08T05:47:45.683Z,0
2019-01-08T05:48:47.824Z,0
2019-01-08T05:49:49.965Z,0
2019-01-08T05:50:52.071Z,0
2019-01-08T05:51:54.224Z,0
2019-01-08T05:52:56.658Z,0
2019-01-08T05:53:58.794Z,0
2019-01-08T05:55:00.931Z,0
2019-01-08T05:56:03.452Z,0
2019-01-08T05:57:05.595Z,0
2019-01-08T05:58:07.791Z,0
2019-01-08T05:59:10.199Z,0
2019-01-08T06:00:16.440Z,0
2019-01-08T06:01:18.886Z,0
2019-01-08T06:02:21.012Z,0
2019-01-08T06:03:23.171Z,0
2019-01-08T06:04:25.597Z,0
2019-01-08T06:05:27.738Z,0
2019-01-08T06:06:29.855Z,0
2019-01-08T06:07:32.275Z,0
2019-01-08T06:08:34.789Z,0
2019-01-08T06:09:36.913Z,0
2019-01-08T06:10:39.055Z,0
2019-01-08T06:11:41.196Z,0
2019-01-08T06:12:43.337Z,0
2019-01-08T06:13:45.463Z,0
2019-01-08T06:14:47.601Z,0
2019-01-08T06:15:49.721Z,0
2019-01-08T06:16:51.845Z,0
2019-01-08T06:17:53.982Z,0
2019-01-08T06:18:56.116Z,0
2019-01-08T06:19:58.262Z,0
2019-01-08T06:21:00.370Z,0
2019-01-08T06:22:02.502Z,0
2019-01-08T06:23:04.653Z,0
2019-01-08T06:24:07.061Z,0
2019-01-08T06:25:09.456Z,0
2019-01-08T06:26:11.882Z,0
2019-01-08T06:27:14.027Z,0
2019-01-08T06:28:16.159Z,0
2019-01-08T06:29:18.305Z,0
2019-01-08T06:30:24.651Z,0
2019-01-08T06:31:27.036Z,0
2019-01-08T06:32:29.180Z,0
2019-01-08T06:33:31.312Z,0
2019-01-08T06:34:33.438Z,0
2019-01-08T06:35:35.564Z,0
2019-01-08T06:36:37.702Z,0
2019-01-08T06:37:39.836Z,0
2019-01-08T06:38:41.951Z,0
2019-01-08T06:39:44.087Z,0
2019-01-08T06:40:46.487Z,0
2019-01-08T06:41:48.614Z,0
2019-01-08T06:42:50.821Z,0
2019-01-08T06:43:52.957Z,0
2019-01-08T06:44:55.105Z,0
2019-01-08T06:45:57.228Z,0
2019-01-08T06:46:59.347Z,0
2019-01-08T06:48:01.787Z,0
2019-01-08T06:49:03.918Z,0
2019-01-08T06:50:06.063Z,0
2019-01-08T06:51:08.212Z,0
2019-01-08T06:52:10.339Z,0
2019-01-08T06:53:12.471Z,0
2019-01-08T06:54:14.596Z,0
2019-01-08T06:55:16.718Z,0
2019-01-08T06:56:18.836Z,0
2019-01-08T06:57:21.232Z,0
2019-01-08T06:58:23.372Z,0
2019-01-08T06:59:25.508Z,4
2019-01-08T07:00:33.133Z,0
2019-01-08T07:01:35.833Z,4
2019-01-08T07:02:38.392Z,4
2019-01-08T07:03:40.944Z,8
2019-01-08T07:04:43.072Z,4
2019-01-08T07:05:45.280Z,8
2019-01-08T07:06:47.413Z,8
2019-01-08T07:07:49.561Z,12
2019-01-08T07:08:51.960Z,16
2019-01-08T07:09:54.102Z,16
2019-01-08T07:10:56.224Z,12
2019-01-08T07:11:58.364Z,12
2019-01-08T07:13:00.775Z,12
2019-01-08T07:14:03.321Z,16
2019-01-08T07:15:05.477Z,20
2019-01-08T07:16:07.899Z,24
2019-01-08T07:17:10.029Z,28
2019-01-08T07:18:12.186Z,32
2019-01-08T07:19:14.298Z,44
2019-01-08T07:20:16.421Z,48
2019-01-08T07:21:18.565Z,56
2019-01-08T07:22:20.698Z,60
2019-01-08T07:23:22.842Z,60
2019-01-08T07:24:24.992Z,64
2019-01-08T07:25:27.106Z,72
2019-01-08T07:26:29.254Z,84
2019-01-08T07:27:31.375Z,88
2019-01-08T07:28:33.509Z,112
2019-01-08T07:29:35.615Z,112
2019-01-08T07:30:41.550Z,124
2019-01-08T07:31:44.297Z,116
2019-01-08T07:32:46.743Z,148
2019-01-08T07:33:49.156Z,144
2019-01-08T07:34:51.373Z,152
2019-01-08T07:35:53.511Z,124
2019-01-08T07:36:55.656Z,108
2019-01-08T07:37:57.890Z,104
2019-01-08T07:39:00.045Z,88
2019-01-08T07:40:02.252Z,96
2019-01-08T07:41:04.392Z,120
2019-01-08T07:42:06.506Z,148
2019-01-08T07:43:08.640Z,196
2019-01-08T07:44:10.792Z,204
2019-01-08T07:45:12.955Z,184
2019-01-08T07:46:15.096Z,164
2019-01-08T07:47:17.238Z,184
2019-01-08T07:48:19.373Z,212
2019-01-08T07:49:21.515Z,216
2019-01-08T07:50:23.647Z,296
2019-01-08T07:51:25.771Z,272
2019-01-08T07:52:27.927Z,364
2019-01-08T07:53:30.122Z,340
2019-01-08T07:54:32.246Z,332
2019-01-08T07:55:36.786Z,388
2019-01-08T07:56:38.915Z,536
2019-01-08T07:57:41.070Z,560
2019-01-08T07:58:43.229Z,600
2019-01-08T07:59:45.358Z,548
2019-01-08T08:00:50.021Z,596
2019-01-08T08:01:52.368Z,480
2019-01-08T08:02:54.508Z,520
2019-01-08T08:03:57.325Z,564
2019-01-08T08:04:59.754Z,564
2019-01-08T08:06:01.914Z,580
2019-01-08T08:07:04.153Z,632
2019-01-08T08:08:06.284Z,620
2019-01-08T08:09:08.419Z,708
2019-01-08T08:10:10.554Z,708
2019-01-08T08:11:12.719Z,684
2019-01-08T08:12:15.229Z,772
2019-01-08T08:13:17.453Z,716
2019-01-08T08:14:19.583Z,644
2019-01-08T08:15:21.729Z,632
2019-01-08T08:16:24.565Z,664
2019-01-08T08:17:26.695Z,928
2019-01-08T08:18:28.835Z,712
2019-01-08T08:19:30.967Z,592
2019-01-08T08:20:33.120Z,644
2019-01-08T08:21:35.826Z,524
2019-01-08T08:22:37.983Z,612
2019-01-08T08:23:40.110Z,472
2019-01-08T08:24:42.261Z,452
2019-01-08T08:25:44.803Z,424
2019-01-08T08:26:47.236Z,472
2019-01-08T08:27:49.383Z,480
2019-01-08T08:28:51.530Z,456
2019-01-08T08:29:53.669Z,576
2019-01-08T08:30:58.734Z,616
2019-01-08T08:32:01.808Z,724
2019-01-08T08:33:04.035Z,708
2019-01-08T08:34:06.191Z,596
2019-01-08T08:35:08.837Z,824
2019-01-08T08:36:11.738Z,864
2019-01-08T08:37:13.891Z,1060
2019-01-08T08:38:16.023Z,1112
2019-01-08T08:39:18.151Z,1252
2019-01-08T08:40:20.268Z,1324
2019-01-08T08:41:22.390Z,1408
2019-01-08T08:42:24.604Z,1452
2019-01-08T08:43:26.740Z,1296
2019-01-08T08:44:28.864Z,1136
2019-01-08T08:45:31.004Z,1056
2019-01-08T08:46:33.150Z,920
2019-01-08T08:47:35.304Z,984
2019-01-08T08:48:37.460Z,1020
2019-01-08T08:49:39.632Z,1136
2019-01-08T08:50:42.170Z,1184
2019-01-08T08:51:44.328Z,1396
2019-01-08T08:52:46.485Z,1740
2019-01-08T08:53:52.499Z,2164
2019-01-08T08:54:55.062Z,2768
2019-01-08T08:55:57.214Z,2880
2019-01-08T08:56:59.342Z,1900
2019-01-08T08:58:01.481Z,1056
2019-01-08T08:59:03.612Z,940
2019-01-08T09:00:05.767Z,904
2019-01-08T09:01:07.912Z,1008
2019-01-08T09:02:10.077Z,836
2019-01-08T09:03:12.229Z,1080
2019-01-08T09:04:14.377Z,1248
2019-01-08T09:05:16.505Z,1104
2019-01-08T09:06:18.679Z,1104
2019-01-08T09:07:20.798Z,1288
2019-01-08T09:08:22.954Z,1264
2019-01-08T09:09:25.459Z,1320
2019-01-08T09:10:27.624Z,1796
2019-01-08T09:11:30.089Z,2196
2019-01-08T09:12:32.217Z,1624
2019-01-08T09:13:34.424Z,1796
2019-01-08T09:14:40.149Z,2260
2019-01-08T09:15:42.385Z,2252
2019-01-08T09:16:44.515Z,2876
2019-01-08T09:17:46.656Z,3216
2019-01-08T09:18:48.781Z,1928
2019-01-08T09:19:50.937Z,1948
2019-01-08T09:20:53.101Z,2120
2019-01-08T09:21:55.403Z,2924
2019-01-08T09:22:57.549Z,2884
2019-01-08T09:23:59.674Z,2536
2019-01-08T09:25:01.870Z,2212
2019-01-08T09:26:04.936Z,2988
2019-01-08T09:27:11.268Z,3300
2019-01-08T09:28:19.426Z,3804
2019-01-08T09:29:26.699Z,3372
2019-01-08T09:30:34.859Z,2296
2019-01-08T09:31:43.220Z,1856
2019-01-08T09:32:47.948Z,1572
2019-01-08T09:33:55.892Z,1600
2019-01-08T09:35:02.915Z,1492
2019-01-08T09:36:11.931Z,1576
2019-01-08T09:37:19.544Z,1860
2019-01-08T09:38:28.301Z,1828
2019-01-08T09:39:36.856Z,2360
2019-01-08T09:40:45.565Z,2748
2019-01-08T09:41:53.442Z,2828
2019-01-08T09:43:01.168Z,2436
2019-01-08T09:44:10.686Z,3496
2019-01-08T09:45:17.687Z,3832
2019-01-08T09:46:26.771Z,4640
2019-01-08T09:47:35.818Z,4676
2019-01-08T09:48:47.667Z,5492
2019-01-08T09:49:55.587Z,5556
2019-01-08T09:51:04.517Z,6440
2019-01-08T09:52:12.990Z,6064
2019-01-08T09:53:22.029Z,6948
2019-01-08T09:54:24.189Z,7336
2019-01-08T09:55:26.340Z,5168
2019-01-08T09:56:28.562Z,5600
2019-01-08T09:57:30.817Z,6232
2019-01-08T09:58:33.025Z,6260
2019-01-08T09:59:35.591Z,5972
2019-01-08T10:00:37.841Z,4732
2019-01-08T10:01:39.981Z,4072
2019-01-08T10:02:42.122Z,4808
2019-01-08T10:03:44.540Z,4624
2019-01-08T10:04:47.068Z,3824
2019-01-08T10:05:49.214Z,3064
2019-01-08T10:06:51.373Z,3476
2019-01-08T10:07:53.909Z,2884
2019-01-08T10:08:56.342Z,2672
2019-01-08T10:09:58.522Z,3260
2019-01-08T10:11:00.676Z,3632
2019-01-08T10:12:03.476Z,2444
2019-01-08T10:13:05.601Z,2744
2019-01-08T10:14:07.882Z,3636
2019-01-08T10:15:10.713Z,2672
2019-01-08T10:16:12.952Z,2516
2019-01-08T10:17:15.369Z,2768
2019-01-08T10:18:17.767Z,2812
2019-01-08T10:19:20.166Z,2452
2019-01-08T10:20:22.751Z,2248
2019-01-08T10:21:25.696Z,1700
2019-01-08T10:22:28.396Z,1664
2019-01-08T10:23:30.527Z,1448
2019-01-08T10:24:32.667Z,1748
2019-01-08T10:25:34.815Z,3244
2019-01-08T10:26:36.960Z,5560
2019-01-08T10:27:39.100Z,7872
2019-01-08T10:28:41.621Z,7324
2019-01-08T10:29:44.127Z,8476
2019-01-08T10:30:46.257Z,7980
2019-01-08T10:31:48.402Z,5096
2019-01-08T10:32:50.665Z,4808
2019-01-08T10:33:52.830Z,3532
2019-01-08T10:34:54.977Z,4904
2019-01-08T10:35:57.129Z,6284
2019-01-08T10:36:59.248Z,8440
2019-01-08T10:38:01.472Z,6596
2019-01-08T10:39:03.602Z,4548
2019-01-08T10:40:06.005Z,3964
2019-01-08T10:41:08.164Z,4720
2019-01-08T10:42:10.312Z,4760
2019-01-08T10:43:13.150Z,3884
2019-01-08T10:44:15.300Z,4400
2019-01-08T10:45:17.435Z,4008
2019-01-08T10:46:20.072Z,4256
2019-01-08T10:47:22.215Z,3584
2019-01-08T10:48:24.677Z,3944
2019-01-08T10:49:26.817Z,4036
2019-01-08T10:50:29.116Z,3732
2019-01-08T10:51:31.258Z,3984
2019-01-08T10:52:33.754Z,4444
2019-01-08T10:53:36.438Z,5020
2019-01-08T10:54:39.030Z,5760
2019-01-08T10:55:41.711Z,6764
2019-01-08T10:56:44.021Z,7572
2019-01-08T10:57:46.408Z,7608
2019-01-08T10:58:49.176Z,8512
2019-01-08T10:59:51.318Z,7328
2019-01-08T11:00:54.258Z,6660
2019-01-08T11:01:57.171Z,6432
2019-01-08T11:02:59.636Z,6008
2019-01-08T11:04:02.037Z,6628
2019-01-08T11:05:04.335Z,6728
2019-01-08T11:06:06.745Z,5968
2019-01-08T11:07:09.339Z,6324
2019-01-08T11:08:11.946Z,5448
2019-01-08T11:09:15.251Z,5512
2019-01-08T11:10:17.655Z,4464
2019-01-08T11:11:20.521Z,3684
2019-01-08T11:12:23.017Z,2788
2019-01-08T11:13:25.547Z,2776
2019-01-08T11:14:28.269Z,2804
2019-01-08T11:15:30.416Z,2960
2019-01-08T11:16:32.555Z,2892
2019-01-08T11:17:34.973Z,3040
2019-01-08T11:18:37.112Z,3484
2019-01-08T11:19:39.261Z,2632
2019-01-08T11:20:41.393Z,2096
2019-01-08T11:21:43.529Z,2232
2019-01-08T11:22:45.746Z,1864
2019-01-08T11:23:47.918Z,1968
2019-01-08T11:24:50.049Z,1540
2019-01-08T11:25:52.164Z,1748
2019-01-08T11:26:54.304Z,2200
2019-01-08T11:27:56.718Z,2024
2019-01-08T11:28:58.920Z,2092
2019-01-08T11:30:01.071Z,2144
2019-01-08T11:31:03.245Z,2432
2019-01-08T11:32:05.786Z,2336
2019-01-08T11:33:07.917Z,2296
2019-01-08T11:34:10.415Z,2168
2019-01-08T11:35:12.558Z,2236
2019-01-08T11:36:15.251Z,2312
2019-01-08T11:37:17.477Z,2372
2019-01-08T11:38:19.622Z,2792
2019-01-08T11:39:22.010Z,2828
2019-01-08T11:40:24.550Z,2688
2019-01-08T11:41:27.091Z,2428
2019-01-08T11:42:29.260Z,2400
2019-01-08T11:43:31.371Z,2596
2019-01-08T11:44:33.718Z,2592
2019-01-08T11:45:36.030Z,2204
2019-01-08T11:46:38.660Z,1632
2019-01-08T11:47:40.889Z,1556
2019-01-08T11:48:43.475Z,1592
2019-01-08T11:49:46.489Z,1744
2019-01-08T11:50:49.443Z,1852
2019-01-08T11:51:51.935Z,2048
2019-01-08T11:52:54.199Z,2208
2019-01-08T11:53:56.353Z,2084
2019-01-08T11:54:58.548Z,2112
2019-01-08T11:56:00.715Z,1888
2019-01-08T11:57:02.840Z,1680
2019-01-08T11:58:05.076Z,1516
2019-01-08T11:59:07.387Z,1440
2019-01-08T12:00:10.285Z,1744
2019-01-08T12:01:12.458Z,1900
2019-01-08T12:02:15.335Z,1868
2019-01-08T12:03:17.804Z,1844
2019-01-08T12:04:20.874Z,1868
2019-01-08T12:05:23.436Z,1948
2019-01-08T12:06:27.849Z,2020
2019-01-08T12:07:31.194Z,2060
2019-01-08T12:08:33.785Z,1804
2019-01-08T12:09:36.300Z,1640
2019-01-08T12:10:38.500Z,1676
2019-01-08T12:11:40.777Z,1520
2019-01-08T12:12:43.390Z,1692
2019-01-08T12:13:45.550Z,1544
2019-01-08T12:14:47.723Z,1460
2019-01-08T12:15:49.958Z,1564
2019-01-08T12:16:52.244Z,2036
2019-01-08T12:17:54.416Z,2396
2019-01-08T12:18:56.838Z,2496
2019-01-08T12:20:00.259Z,2772
2019-01-08T12:21:03.230Z,2820
2019-01-08T12:22:06.132Z,2968
2019-01-08T12:23:08.879Z,3236
2019-01-08T12:24:11.026Z,3284
2019-01-08T12:25:13.183Z,3260
2019-01-08T12:26:15.318Z,3048
2019-01-08T12:27:17.487Z,3016
2019-01-08T12:28:19.627Z,3168
2019-01-08T12:29:21.860Z,3980
2019-01-08T12:30:24.004Z,3400
2019-01-08T12:31:26.156Z,2188
2019-01-08T12:32:28.359Z,1972
2019-01-08T12:33:30.510Z,2164
2019-01-08T12:34:32.666Z,2220
2019-01-08T12:35:34.786Z,2512
2019-01-08T12:36:37.215Z,2724
2019-01-08T12:37:39.364Z,2956
2019-01-08T12:38:43.576Z,3528
2019-01-08T12:39:45.726Z,4068
2019-01-08T12:40:48.175Z,4204
2019-01-08T12:41:50.317Z,5220
2019-01-08T12:42:52.467Z,6420
2019-01-08T12:43:55.668Z,7468
2019-01-08T12:44:58.224Z,7764
2019-01-08T12:46:00.751Z,7532
2019-01-08T12:47:02.912Z,6316
2019-01-08T12:48:05.075Z,5960
2019-01-08T12:49:07.240Z,5428
2019-01-08T12:50:09.377Z,5452
2019-01-08T12:51:11.542Z,6228
2019-01-08T12:52:13.703Z,6348
2019-01-08T12:53:15.837Z,6092
2019-01-08T12:54:18.015Z,6196
2019-01-08T12:55:20.158Z,6324
2019-01-08T12:56:22.351Z,6584
2019-01-08T12:57:24.513Z,6900
2019-01-08T12:58:26.669Z,6884
2019-01-08T12:59:28.803Z,6440
2019-01-08T13:00:30.933Z,6212
2019-01-08T13:01:33.098Z,6388
2019-01-08T13:02:35.254Z,7368
2019-01-08T13:03:37.415Z,6000
2019-01-08T13:04:39.554Z,4692
2019-01-08T13:05:41.686Z,3772
2019-01-08T13:06:43.922Z,2696
2019-01-08T13:07:46.085Z,2916
2019-01-08T13:08:48.255Z,2816
2019-01-08T13:09:50.404Z,3012
2019-01-08T13:10:52.564Z,2800
2019-01-08T13:11:55.032Z,2396
2019-01-08T13:12:57.193Z,2080
2019-01-08T13:13:59.733Z,2176
2019-01-08T13:15:01.865Z,2108
2019-01-08T13:16:04.001Z,2272
2019-01-08T13:17:11.308Z,2352
2019-01-08T13:18:14.187Z,2300
2019-01-08T13:19:16.361Z,2332
2019-01-08T13:20:18.593Z,2272
2019-01-08T13:21:21.110Z,2312
2019-01-08T13:22:23.256Z,2008
2019-01-08T13:23:25.397Z,1628
2019-01-08T13:24:27.553Z,1448
2019-01-08T13:25:29.718Z,1456
2019-01-08T13:26:31.870Z,1504
2019-01-08T13:27:34.034Z,1368
2019-01-08T13:28:36.168Z,1388
2019-01-08T13:29:38.597Z,1436
2019-01-08T13:30:40.731Z,1428
2019-01-08T13:31:42.859Z,1312
2019-01-08T13:32:45.002Z,1276
2019-01-08T13:33:47.273Z,1248
2019-01-08T13:34:49.406Z,1220
2019-01-08T13:35:51.554Z,1244
2019-01-08T13:36:53.796Z,1196
2019-01-08T13:37:55.996Z,1116
2019-01-08T13:38:58.167Z,1040
2019-01-08T13:40:00.366Z,904
2019-01-08T13:41:03.141Z,760
2019-01-08T13:42:05.325Z,604
2019-01-08T13:43:07.484Z,480
2019-01-08T13:44:09.609Z,420
2019-01-08T13:45:11.768Z,508
2019-01-08T13:46:13.959Z,928
2019-01-08T13:47:16.686Z,1560
2019-01-08T13:48:18.842Z,2232
2019-01-08T13:49:21.644Z,2248
2019-01-08T13:50:24.361Z,2060
2019-01-08T13:51:26.920Z,2520
2019-01-08T13:52:29.155Z,2748
2019-01-08T13:53:31.352Z,2792
2019-01-08T13:54:33.491Z,2660
2019-01-08T13:55:35.665Z,2584
2019-01-08T13:56:37.872Z,2480
2019-01-08T13:57:40.033Z,2636
2019-01-08T13:58:42.224Z,2892
2019-01-08T13:59:44.370Z,2704
2019-01-08T14:00:46.550Z,2480
2019-01-08T14:01:48.802Z,2504
2019-01-08T14:02:51.029Z,2572
2019-01-08T14:03:53.209Z,2432
2019-01-08T14:04:55.464Z,2200
2019-01-08T14:05:57.931Z,2000
2019-01-08T14:07:00.469Z,2064
2019-01-08T14:08:03.047Z,1956
2019-01-08T14:09:05.265Z,1800
2019-01-08T14:10:07.414Z,1888
2019-01-08T14:11:09.979Z,2280
2019-01-08T14:12:12.175Z,2604
2019-01-08T14:13:14.368Z,2728
2019-01-08T14:14:16.556Z,2752
2019-01-08T14:15:18.746Z,2732
2019-01-08T14:16:21.328Z,2700
2019-01-08T14:17:23.909Z,2652
2019-01-08T14:18:26.122Z,2568
2019-01-08T14:19:28.331Z,2504
2019-01-08T14:20:30.530Z,2332
2019-01-08T14:21:32.707Z,2096
2019-01-08T14:22:34.878Z,1796
2019-01-08T14:23:37.086Z,1400
2019-01-08T14:24:39.269Z,1076
2019-01-08T14:25:41.391Z,968
2019-01-08T14:26:43.529Z,904
2019-01-08T14:27:46.068Z,784
2019-01-08T14:28:48.228Z,692
2019-01-08T14:29:50.636Z,656
2019-01-08T14:30:52.777Z,600
2019-01-08T14:31:55.030Z,564
2019-01-08T14:32:57.181Z,536
2019-01-08T14:33:59.293Z,484
2019-01-08T14:35:01.454Z,432
2019-01-08T14:36:04.014Z,436
2019-01-08T14:37:06.171Z,444
2019-01-08T14:38:08.317Z,428
2019-01-08T14:39:10.741Z,308
2019-01-08T14:40:12.890Z,256